sensor_id;sensor_type;location;lat;lon;timestamp;pressure;altitude;pressure_sealevel;temperature;humidity
39363;BME280;25088;43.238;23.110;2023-05-03T00:01:14;96689.97;;;14.58;54.39
39363;BME280;25088;43.238;23.110;2023-05-03T00:03:39;96691.91;;;14.57;53.77
39363;BME280;25088;43.238;23.110;2023-05-03T00:06:12;96695.13;;;14.85;52.58
39363;BME280;25088;43.238;23.110;2023-05-03T00:08:38;96664.91;;;14.80;52.16
39363;BME280;25088;43.238;23.110;2023-05-03T00:11:04;96685.72;;;15.01;52.44
39363;BME280;25088;43.238;23.110;2023-05-03T00:13:29;96687.94;;;14.99;54.58
39363;BME280;25088;43.238;23.110;2023-05-03T00:15:55;96707.13;;;15.14;54.19
39363;BME280;25088;43.238;23.110;2023-05-03T00:18:20;96713.72;;;15.13;54.24
39363;BME280;25088;43.238;23.110;2023-05-03T00:20:46;96698.31;;;15.22;52.29
39363;BME280;25088;43.238;23.110;2023-05-03T00:23:12;96680.97;;;15.22;51.05
39363;BME280;25088;43.238;23.110;2023-05-03T00:25:38;96661.75;;;15.17;48.13
39363;BME280;25088;43.238;23.110;2023-05-03T00:28:03;96666.03;;;15.43;49.68
39363;BME280;25088;43.238;23.110;2023-05-03T00:30:29;96674.72;;;15.66;48.39
39363;BME280;25088;43.238;23.110;2023-05-03T00:32:54;96664.69;;;15.85;49.63
39363;BME280;25088;43.238;23.110;2023-05-03T00:35:20;96661.97;;;15.80;48.76
39363;BME280;25088;43.238;23.110;2023-05-03T00:37:45;96653.88;;;15.94;47.66
39363;BME280;25088;43.238;23.110;2023-05-03T00:40:11;96649.16;;;15.99;50.58
39363;BME280;25088;43.238;23.110;2023-05-03T00:42:37;96650.84;;;15.95;50.00
39363;BME280;25088;43.238;23.110;2023-05-03T00:45:03;96651.47;;;15.87;46.90
39363;BME280;25088;43.238;23.110;2023-05-03T00:47:30;96657.75;;;15.93;48.28
39363;BME280;25088;43.238;23.110;2023-05-03T00:49:56;96651.63;;;16.01;48.76
39363;BME280;25088;43.238;23.110;2023-05-03T00:52:22;96640.69;;;15.91;49.08
39363;BME280;25088;43.238;23.110;2023-05-03T00:54:47;96639.38;;;15.83;48.99
39363;BME280;25088;43.238;23.110;2023-05-03T00:57:13;96639.59;;;15.92;48.65
39363;BME280;25088;43.238;23.110;2023-05-03T00:59:39;96631.94;;;15.84;48.99
39363;BME280;25088;43.238;23.110;2023-05-03T01:02:04;96635.84;;;15.77;48.22
39363;BME280;25088;43.238;23.110;2023-05-03T01:04:30;96658.56;;;15.93;48.94
39363;BME280;25088;43.238;23.110;2023-05-03T01:09:46;96674.97;;;16.09;47.83
39363;BME280;25088;43.238;23.110;2023-05-03T01:12:16;96665.28;;;16.16;45.32
39363;BME280;25088;43.238;23.110;2023-05-03T01:17:27;96672.47;;;16.12;48.15
39363;BME280;25088;43.238;23.110;2023-05-03T01:19:57;96681.53;;;16.18;48.78
39363;BME280;25088;43.238;23.110;2023-05-03T01:27:31;96685.81;;;15.95;47.77
39363;BME280;25088;43.238;23.110;2023-05-03T01:29:57;96698.66;;;16.10;47.07
39363;BME280;25088;43.238;23.110;2023-05-03T01:32:29;96681.19;;;16.24;46.90
39363;BME280;25088;43.238;23.110;2023-05-03T01:35:05;96683.63;;;16.26;46.74
39363;BME280;25088;43.238;23.110;2023-05-03T01:37:32;96669.91;;;16.21;47.67
39363;BME280;25088;43.238;23.110;2023-05-03T01:40:02;96677.47;;;16.05;48.61
39363;BME280;25088;43.238;23.110;2023-05-03T01:42:35;96681.16;;;15.90;48.26
39363;BME280;25088;43.238;23.110;2023-05-03T01:45:03;96682.41;;;15.69;48.92
39363;BME280;25088;43.238;23.110;2023-05-03T01:47:28;96685.72;;;15.66;49.16
39363;BME280;25088;43.238;23.110;2023-05-03T01:49:54;96686.28;;;15.63;47.73
39363;BME280;25088;43.238;23.110;2023-05-03T01:52:20;96693.22;;;15.50;52.17
39363;BME280;25088;43.238;23.110;2023-05-03T01:54:46;96689.19;;;15.32;52.20
39363;BME280;25088;43.238;23.110;2023-05-03T01:57:11;96711.78;;;15.19;52.20
39363;BME280;25088;43.238;23.110;2023-05-03T01:59:37;96706.34;;;14.98;52.28
39363;BME280;25088;43.238;23.110;2023-05-03T02:02:02;96690.38;;;15.06;51.34
39363;BME280;25088;43.238;23.110;2023-05-03T02:04:28;96689.00;;;15.13;51.45
39363;BME280;25088;43.238;23.110;2023-05-03T02:06:54;96680.97;;;15.22;54.47
39363;BME280;25088;43.238;23.110;2023-05-03T02:09:20;96691.66;;;15.29;54.27
39363;BME280;25088;43.238;23.110;2023-05-03T02:11:46;96696.84;;;15.35;52.57
39363;BME280;25088;43.238;23.110;2023-05-03T02:14:12;96700.44;;;15.36;53.03
39363;BME280;25088;43.238;23.110;2023-05-03T02:16:37;96699.56;;;15.45;52.82
39363;BME280;25088;43.238;23.110;2023-05-03T02:19:02;96702.84;;;15.52;52.18
39363;BME280;25088;43.238;23.110;2023-05-03T02:21:28;96667.69;;;15.39;51.72
39363;BME280;25088;43.238;23.110;2023-05-03T02:23:53;96695.09;;;15.60;51.34
39363;BME280;25088;43.238;23.110;2023-05-03T02:26:19;96693.78;;;15.52;48.47
39363;BME280;25088;43.238;23.110;2023-05-03T02:28:45;96692.50;;;15.29;52.51
39363;BME280;25088;43.238;23.110;2023-05-03T02:31:10;96709.25;;;15.38;51.80
39363;BME280;25088;43.238;23.110;2023-05-03T02:33:37;96705.41;;;15.34;53.41
39363;BME280;25088;43.238;23.110;2023-05-03T02:36:03;96688.06;;;15.33;52.89
39363;BME280;25088;43.238;23.110;2023-05-03T02:38:29;96686.13;;;15.39;52.84
39363;BME280;25088;43.238;23.110;2023-05-03T02:40:55;96693.22;;;15.45;52.12
39363;BME280;25088;43.238;23.110;2023-05-03T02:43:21;96701.25;;;15.36;53.68
39363;BME280;25088;43.238;23.110;2023-05-03T02:45:46;96695.78;;;15.31;54.10
39363;BME280;25088;43.238;23.110;2023-05-03T02:48:11;96698.75;;;15.40;53.90
39363;BME280;25088;43.238;23.110;2023-05-03T02:50:38;96709.22;;;15.43;52.14
39363;BME280;25088;43.238;23.110;2023-05-03T02:53:04;96716.16;;;15.25;51.64
39363;BME280;25088;43.238;23.110;2023-05-03T02:55:29;96718.94;;;15.20;51.90
39363;BME280;25088;43.238;23.110;2023-05-03T02:57:55;96702.41;;;15.25;51.46
39363;BME280;25088;43.238;23.110;2023-05-03T03:00:21;96701.31;;;15.21;51.16
39363;BME280;25088;43.238;23.110;2023-05-03T03:02:46;96704.03;;;15.26;52.81
39363;BME280;25088;43.238;23.110;2023-05-03T03:05:12;96721.13;;;15.23;52.33
39363;BME280;25088;43.238;23.110;2023-05-03T03:07:37;96727.44;;;15.23;51.27
39363;BME280;25088;43.238;23.110;2023-05-03T03:10:05;96734.28;;;15.31;51.34
39363;BME280;25088;43.238;23.110;2023-05-03T03:12:31;96734.78;;;15.43;51.58
39363;BME280;25088;43.238;23.110;2023-05-03T03:14:57;96732.63;;;15.35;51.29
39363;BME280;25088;43.238;23.110;2023-05-03T03:17:22;96730.13;;;15.39;51.83
39363;BME280;25088;43.238;23.110;2023-05-03T03:19:48;96732.91;;;15.34;52.15
39363;BME280;25088;43.238;23.110;2023-05-03T03:22:14;96741.66;;;15.41;53.23
39363;BME280;25088;43.238;23.110;2023-05-03T03:24:39;96753.50;;;15.41;52.56
39363;BME280;25088;43.238;23.110;2023-05-03T03:27:05;96755.75;;;15.34;52.04
39363;BME280;25088;43.238;23.110;2023-05-03T03:29:31;96760.75;;;15.22;52.60
39363;BME280;25088;43.238;23.110;2023-05-03T03:31:57;96762.09;;;15.19;53.80
39363;BME280;25088;43.238;23.110;2023-05-03T03:34:23;96767.06;;;15.17;52.83
39363;BME280;25088;43.238;23.110;2023-05-03T03:36:48;96764.03;;;15.19;53.25
39363;BME280;25088;43.238;23.110;2023-05-03T03:39:13;96762.09;;;15.19;53.14
39363;BME280;25088;43.238;23.110;2023-05-03T03:41:39;96765.94;;;15.23;53.45
39363;BME280;25088;43.238;23.110;2023-05-03T03:44:04;96766.25;;;15.22;52.84
39363;BME280;25088;43.238;23.110;2023-05-03T03:46:30;96762.63;;;15.21;53.26
39363;BME280;25088;43.238;23.110;2023-05-03T03:48:56;96750.06;;;15.00;53.52
39363;BME280;25088;43.238;23.110;2023-05-03T03:51:21;96765.44;;;15.06;56.10
39363;BME280;25088;43.238;23.110;2023-05-03T03:53:46;96773.44;;;14.97;57.00
39363;BME280;25088;43.238;23.110;2023-05-03T03:56:12;96779.47;;;14.99;55.16
39363;BME280;25088;43.238;23.110;2023-05-03T03:58:37;96781.69;;;14.97;54.94
39363;BME280;25088;43.238;23.110;2023-05-03T04:01:03;96785.00;;;14.84;57.06
39363;BME280;25088;43.238;23.110;2023-05-03T04:03:29;96790.22;;;14.70;57.55
39363;BME280;25088;43.238;23.110;2023-05-03T04:05:54;96785.56;;;14.71;58.08
39363;BME280;25088;43.238;23.110;2023-05-03T04:08:19;96792.16;;;14.75;59.61
39363;BME280;25088;43.238;23.110;2023-05-03T04:10:45;96793.25;;;14.69;59.62
39363;BME280;25088;43.238;23.110;2023-05-03T04:13:10;96789.69;;;14.53;60.54
39363;BME280;25088;43.238;23.110;2023-05-03T04:15:36;96790.22;;;14.65;60.61
39363;BME280;25088;43.238;23.110;2023-05-03T04:18:01;96808.34;;;14.61;61.05
39363;BME280;25088;43.238;23.110;2023-05-03T04:20:27;96813.84;;;14.66;61.57
39363;BME280;25088;43.238;23.110;2023-05-03T04:22:53;96814.13;;;14.75;62.62
39363;BME280;25088;43.238;23.110;2023-05-03T04:25:19;96814.97;;;14.65;61.25
39363;BME280;25088;43.238;23.110;2023-05-03T04:27:44;96809.22;;;14.67;60.82
39363;BME280;25088;43.238;23.110;2023-05-03T04:30:10;96815.53;;;14.72;61.27
39363;BME280;25088;43.238;23.110;2023-05-03T04:32:40;96817.47;;;14.77;60.59
39363;BME280;25088;43.238;23.110;2023-05-03T04:35:07;96816.88;;;14.85;63.31
39363;BME280;25088;43.238;23.110;2023-05-03T04:37:35;96818.25;;;15.03;62.93
39363;BME280;25088;43.238;23.110;2023-05-03T04:40:02;96814.69;;;14.92;63.10
39363;BME280;25088;43.238;23.110;2023-05-03T04:42:37;96835.00;;;14.96;62.77
39363;BME280;25088;43.238;23.110;2023-05-03T04:45:03;96826.47;;;15.13;60.54
39363;BME280;25088;43.238;23.110;2023-05-03T04:47:31;96827.28;;;15.24;58.78
39363;BME280;25088;43.238;23.110;2023-05-03T04:49:56;96823.44;;;15.20;59.44
39363;BME280;25088;43.238;23.110;2023-05-03T04:52:22;96828.94;;;15.20;62.01
39363;BME280;25088;43.238;23.110;2023-05-03T04:54:47;96834.44;;;15.15;59.69
39363;BME280;25088;43.238;23.110;2023-05-03T04:57:13;96831.44;;;15.06;59.20
39363;BME280;25088;43.238;23.110;2023-05-03T04:59:38;96836.13;;;14.90;58.97
39363;BME280;25088;43.238;23.110;2023-05-03T05:02:04;96842.44;;;14.76;59.19
39363;BME280;25088;43.238;23.110;2023-05-03T05:04:29;96844.94;;;14.72;60.65
39363;BME280;25088;43.238;23.110;2023-05-03T05:06:54;96847.09;;;14.55;60.84
39363;BME280;25088;43.238;23.110;2023-05-03T05:09:27;96855.34;;;14.50;60.75
39363;BME280;25088;43.238;23.110;2023-05-03T05:11:52;96874.56;;;14.50;61.18
39363;BME280;25088;43.238;23.110;2023-05-03T05:14:18;96875.69;;;14.59;59.72
39363;BME280;25088;43.238;23.110;2023-05-03T05:16:44;96883.13;;;14.63;59.69
39363;BME280;25088;43.238;23.110;2023-05-03T05:19:10;96876.81;;;14.63;59.12
39363;BME280;25088;43.238;23.110;2023-05-03T05:21:36;96888.63;;;14.63;59.27
39363;BME280;25088;43.238;23.110;2023-05-03T05:24:01;96890.78;;;14.61;59.25
39363;BME280;25088;43.238;23.110;2023-05-03T05:26:26;96899.31;;;14.50;59.57
39363;BME280;25088;43.238;23.110;2023-05-03T05:28:52;96907.00;;;14.47;60.27
39363;BME280;25088;43.238;23.110;2023-05-03T05:31:18;96909.41;;;14.39;59.85
39363;BME280;25088;43.238;23.110;2023-05-03T05:33:43;96908.66;;;14.54;59.91
39363;BME280;25088;43.238;23.110;2023-05-03T05:36:09;96903.94;;;14.44;59.58
39363;BME280;25088;43.238;23.110;2023-05-03T05:38:35;96894.81;;;14.23;60.51
39363;BME280;25088;43.238;23.110;2023-05-03T05:41:01;96916.81;;;14.33;60.03
39363;BME280;25088;43.238;23.110;2023-05-03T05:43:29;96912.16;;;14.39;60.42
39363;BME280;25088;43.238;23.110;2023-05-03T05:45:55;96906.16;;;14.47;60.00
39363;BME280;25088;43.238;23.110;2023-05-03T05:48:20;96922.69;;;14.62;60.47
39363;BME280;25088;43.238;23.110;2023-05-03T05:50:46;96918.03;;;14.78;59.48
39363;BME280;25088;43.238;23.110;2023-05-03T05:53:11;96910.31;;;14.70;59.62
39363;BME280;25088;43.238;23.110;2023-05-03T05:55:37;96922.41;;;14.69;60.25
39363;BME280;25088;43.238;23.110;2023-05-03T05:58:02;96921.03;;;14.71;62.55
39363;BME280;25088;43.238;23.110;2023-05-03T06:00:28;96918.34;;;14.87;61.68
39363;BME280;25088;43.238;23.110;2023-05-03T06:02:54;96922.97;;;14.86;60.67
39363;BME280;25088;43.238;23.110;2023-05-03T06:05:20;96916.41;;;14.82;60.59
39363;BME280;25088;43.238;23.110;2023-05-03T06:07:45;96918.03;;;14.78;61.36
39363;BME280;25088;43.238;23.110;2023-05-03T06:10:11;96912.78;;;14.61;62.68
39363;BME280;25088;43.238;23.110;2023-05-03T06:12:37;96914.72;;;14.71;61.58
39363;BME280;25088;43.238;23.110;2023-05-03T06:15:03;96916.66;;;14.86;61.90
39363;BME280;25088;43.238;23.110;2023-05-03T06:17:29;96921.63;;;15.04;60.92
39363;BME280;25088;43.238;23.110;2023-05-03T06:19:54;96914.75;;;15.12;58.92
39363;BME280;25088;43.238;23.110;2023-05-03T06:22:20;96900.44;;;15.35;57.59
39363;BME280;25088;43.238;23.110;2023-05-03T06:24:45;96916.66;;;15.47;56.84
39363;BME280;25088;43.238;23.110;2023-05-03T06:27:10;96902.81;;;15.88;55.61
39363;BME280;25088;43.238;23.110;2023-05-03T06:29:36;96906.38;;;15.93;54.16
39363;BME280;25088;43.238;23.110;2023-05-03T06:32:02;96894.69;;;16.27;53.79
39363;BME280;25088;43.238;23.110;2023-05-03T06:34:27;96895.06;;;16.54;53.21
39363;BME280;25088;43.238;23.110;2023-05-03T06:36:53;96890.56;;;16.74;53.46
39363;BME280;25088;43.238;23.110;2023-05-03T06:39:19;96884.56;;;16.62;53.34
39363;BME280;25088;43.238;23.110;2023-05-03T06:41:44;96890.09;;;16.57;52.61
39363;BME280;25088;43.238;23.110;2023-05-03T06:44:10;96896.84;;;16.30;52.84
39363;BME280;25088;43.238;23.110;2023-05-03T06:46:35;96890.84;;;16.23;53.64
39363;BME280;25088;43.238;23.110;2023-05-03T06:49:01;96880.00;;;16.42;54.06
39363;BME280;25088;43.238;23.110;2023-05-03T06:51:27;96891.38;;;16.20;55.23
39363;BME280;25088;43.238;23.110;2023-05-03T06:53:54;96886.34;;;16.42;53.80
39363;BME280;25088;43.238;23.110;2023-05-03T06:56:20;96875.19;;;16.13;54.07
39363;BME280;25088;43.238;23.110;2023-05-03T06:58:46;96895.78;;;16.21;52.92
39363;BME280;25088;43.238;23.110;2023-05-03T07:01:12;96888.94;;;16.18;54.31
39363;BME280;25088;43.238;23.110;2023-05-03T07:03:37;96880.38;;;16.20;54.32
39363;BME280;25088;43.238;23.110;2023-05-03T07:06:03;96893.00;;;16.26;55.53
39363;BME280;25088;43.238;23.110;2023-05-03T07:08:29;96896.38;;;16.18;55.55
39363;BME280;25088;43.238;23.110;2023-05-03T07:10:55;96899.38;;;16.26;54.09
39363;BME280;25088;43.238;23.110;2023-05-03T07:13:21;96900.19;;;16.27;54.16
39363;BME280;25088;43.238;23.110;2023-05-03T07:15:46;96890.72;;;16.43;54.39
39363;BME280;25088;43.238;23.110;2023-05-03T07:18:12;96831.50;;;15.86;55.09
39363;BME280;25088;43.238;23.110;2023-05-03T07:20:37;96895.31;;;16.09;56.67
39363;BME280;25088;43.238;23.110;2023-05-03T07:23:03;96886.19;;;16.13;57.16
39363;BME280;25088;43.238;23.110;2023-05-03T07:25:28;96895.59;;;16.07;57.49
39363;BME280;25088;43.238;23.110;2023-05-03T07:27:54;96902.78;;;15.98;57.84
39363;BME280;25088;43.238;23.110;2023-05-03T07:30:21;96879.31;;;16.11;57.29
39363;BME280;25088;43.238;23.110;2023-05-03T07:32:46;96887.50;;;16.26;58.00
39363;BME280;25088;43.238;23.110;2023-05-03T07:35:12;96888.31;;;16.32;57.44
39363;BME280;25088;43.238;23.110;2023-05-03T07:37:37;96897.31;;;16.47;58.75
39363;BME280;25088;43.238;23.110;2023-05-03T07:40:05;96887.41;;;16.46;57.54
39363;BME280;25088;43.238;23.110;2023-05-03T07:42:31;96899.06;;;16.33;58.34
39363;BME280;25088;43.238;23.110;2023-05-03T07:44:58;96904.03;;;16.31;58.02
39363;BME280;25088;43.238;23.110;2023-05-03T07:47:24;96902.94;;;16.27;58.42
39363;BME280;25088;43.238;23.110;2023-05-03T07:49:50;96909.53;;;16.26;58.50
39363;BME280;25088;43.238;23.110;2023-05-03T07:52:16;96904.59;;;16.28;58.30
39363;BME280;25088;43.238;23.110;2023-05-03T07:54:42;96914.53;;;16.24;57.38
39363;BME280;25088;43.238;23.110;2023-05-03T07:57:10;96895.59;;;16.07;57.81
39363;BME280;25088;43.238;23.110;2023-05-03T07:59:36;96898.94;;;15.94;57.32
39363;BME280;25088;43.238;23.110;2023-05-03T08:02:03;96903.28;;;16.10;58.01
39363;BME280;25088;43.238;23.110;2023-05-03T08:04:28;96897.28;;;15.98;58.06
39363;BME280;25088;43.238;23.110;2023-05-03T08:06:54;96901.13;;;16.02;58.00
39363;BME280;25088;43.238;23.110;2023-05-03T08:09:19;96888.72;;;16.05;57.92
39363;BME280;25088;43.238;23.110;2023-05-03T08:11:45;96892.66;;;15.83;58.27
39363;BME280;25088;43.238;23.110;2023-05-03T08:14:11;96890.47;;;15.70;59.07
39363;BME280;25088;43.238;23.110;2023-05-03T08:16:36;96897.09;;;15.59;60.31
39363;BME280;25088;43.238;23.110;2023-05-03T08:19:02;96901.53;;;15.39;59.86
39363;BME280;25088;43.238;23.110;2023-05-03T08:21:29;96883.41;;;15.13;60.67
39363;BME280;25088;43.238;23.110;2023-05-03T08:23:55;96909.50;;;15.25;60.76
39363;BME280;25088;43.238;23.110;2023-05-03T08:26:21;96920.78;;;15.44;62.57
39363;BME280;25088;43.238;23.110;2023-05-03T08:28:46;96926.00;;;15.25;62.34
39363;BME280;25088;43.238;23.110;2023-05-03T08:31:12;96927.66;;;15.16;61.69
39363;BME280;25088;43.238;23.110;2023-05-03T08:33:38;96936.19;;;15.20;64.34
39363;BME280;25088;43.238;23.110;2023-05-03T08:36:04;96934.00;;;15.37;65.28
39363;BME280;25088;43.238;23.110;2023-05-03T08:38:29;96933.44;;;15.30;65.55
39363;BME280;25088;43.238;23.110;2023-05-03T08:40:57;96928.22;;;14.93;67.21
39363;BME280;25088;43.238;23.110;2023-05-03T08:43:27;96913.66;;;14.92;68.62
39363;BME280;25088;43.238;23.110;2023-05-03T08:45:52;96921.91;;;15.13;68.71
39363;BME280;25088;43.238;23.110;2023-05-03T08:48:18;96924.34;;;15.45;67.15
39363;BME280;25088;43.238;23.110;2023-05-03T08:50:44;96938.09;;;15.65;65.94
39363;BME280;25088;43.238;23.110;2023-05-03T08:53:10;96936.44;;;15.69;65.27
39363;BME280;25088;43.238;23.110;2023-05-03T08:55:39;96938.63;;;15.88;62.78
39363;BME280;25088;43.238;23.110;2023-05-03T08:58:07;96941.91;;;15.85;61.39
39363;BME280;25088;43.238;23.110;2023-05-03T09:00:37;96938.06;;;15.81;61.10
39363;BME280;25088;43.238;23.110;2023-05-03T09:03:03;96938.63;;;15.83;59.87
39363;BME280;25088;43.238;23.110;2023-05-03T09:05:33;96933.94;;;15.83;59.91
39363;BME280;25088;43.238;23.110;2023-05-03T09:08:04;96952.41;;;15.77;59.46
39363;BME280;25088;43.238;23.110;2023-05-03T09:10:31;96950.97;;;16.00;60.40
39363;BME280;25088;43.238;23.110;2023-05-03T09:13:00;96952.94;;;15.85;60.57
39363;BME280;25088;43.238;23.110;2023-05-03T09:15:29;96959.72;;;16.23;60.76
39363;BME280;25088;43.238;23.110;2023-05-03T09:18:16;96952.84;;;16.15;60.35
39363;BME280;25088;43.238;23.110;2023-05-03T09:20:42;96951.00;;;15.90;59.66
39363;BME280;25088;43.238;23.110;2023-05-03T09:23:22;96957.25;;;16.21;59.83
39363;BME280;25088;43.238;23.110;2023-05-03T09:25:53;96947.19;;;16.46;61.20
39363;BME280;25088;43.238;23.110;2023-05-03T09:28:19;96951.22;;;16.74;58.19
39363;BME280;25088;43.238;23.110;2023-05-03T09:30:45;96949.53;;;16.78;58.22
39363;BME280;25088;43.238;23.110;2023-05-03T09:33:12;96946.16;;;16.37;57.33
39363;BME280;25088;43.238;23.110;2023-05-03T09:35:56;96929.00;;;16.50;57.81
39363;BME280;25088;43.238;23.110;2023-05-03T09:38:30;96933.75;;;16.89;56.71
39363;BME280;25088;43.238;23.110;2023-05-03T09:40:56;96934.91;;;17.22;54.62
39363;BME280;25088;43.238;23.110;2023-05-03T09:43:22;96923.22;;;17.59;54.44
39363;BME280;25088;43.238;23.110;2023-05-03T09:45:48;96928.47;;;18.14;54.61
39363;BME280;25088;43.238;23.110;2023-05-03T09:48:14;96915.19;;;18.58;54.02
39363;BME280;25088;43.238;23.110;2023-05-03T09:50:42;96914.84;;;18.84;51.26
39363;BME280;25088;43.238;23.110;2023-05-03T09:53:08;96909.25;;;19.41;50.17
39363;BME280;25088;43.238;23.110;2023-05-03T09:55:37;96898.16;;;20.42;47.22
39363;BME280;25088;43.238;23.110;2023-05-03T09:58:03;96896.47;;;21.41;45.87
39363;BME280;25088;43.238;23.110;2023-05-03T10:00:39;96889.94;;;22.48;43.84
39363;BME280;25088;43.238;23.110;2023-05-03T10:03:10;96891.03;;;22.95;42.00
39363;BME280;25088;43.238;23.110;2023-05-03T10:05:45;96856.34;;;22.27;43.07
39363;BME280;25088;43.238;23.110;2023-05-03T10:08:38;96896.41;;;22.83;41.86
39363;BME280;25088;43.238;23.110;2023-05-03T10:11:07;96875.97;;;23.95;39.82
39363;BME280;25088;43.238;23.110;2023-05-03T10:13:33;96872.34;;;23.39;40.69
39363;BME280;25088;43.238;23.110;2023-05-03T10:16:05;96892.94;;;22.68;41.45
39363;BME280;25088;43.238;23.110;2023-05-03T10:18:36;96843.84;;;21.67;42.28
39363;BME280;25088;43.238;23.110;2023-05-03T10:21:11;96890.84;;;21.32;43.70
39363;BME280;25088;43.238;23.110;2023-05-03T10:26:43;96883.94;;;21.44;43.70
39363;BME280;25088;43.238;23.110;2023-05-03T10:32:03;96862.13;;;23.78;39.76
39363;BME280;25088;43.238;23.110;2023-05-03T10:34:34;96868.66;;;24.20;39.36
39363;BME280;25088;43.238;23.110;2023-05-03T10:37:08;96871.19;;;24.93;38.06
39363;BME280;25088;43.238;23.110;2023-05-03T10:39:35;96864.59;;;25.18;37.02
39363;BME280;25088;43.238;23.110;2023-05-03T10:42:04;96869.44;;;24.29;38.34
39363;BME280;25088;43.238;23.110;2023-05-03T10:44:48;96878.25;;;22.94;39.89
39363;BME280;25088;43.238;23.110;2023-05-03T10:47:17;96883.72;;;22.02;41.43
39363;BME280;25088;43.238;23.110;2023-05-03T10:49:43;96878.56;;;21.78;41.90
39363;BME280;25088;43.238;23.110;2023-05-03T10:54:59;96883.06;;;21.65;42.61
39363;BME280;25088;43.238;23.110;2023-05-03T10:57:30;96877.59;;;21.52;42.97
39363;BME280;25088;43.238;23.110;2023-05-03T10:59:56;96885.34;;;21.63;43.02
39363;BME280;25088;43.238;23.110;2023-05-03T11:02:26;96879.31;;;20.80;43.21
39363;BME280;25088;43.238;23.110;2023-05-03T11:04:58;96877.31;;;21.62;43.55
39363;BME280;25088;43.238;23.110;2023-05-03T11:07:28;96874.88;;;21.60;42.33
39363;BME280;25088;43.238;23.110;2023-05-03T11:09:54;96883.91;;;22.45;41.12
39363;BME280;25088;43.238;23.110;2023-05-03T11:12:20;96884.44;;;22.74;40.79
39363;BME280;25088;43.238;23.110;2023-05-03T11:14:45;96869.91;;;22.94;39.72
39363;BME280;25088;43.238;23.110;2023-05-03T11:17:11;96868.56;;;23.35;39.84
39363;BME280;25088;43.238;23.110;2023-05-03T11:19:36;96861.97;;;23.65;38.94
39363;BME280;25088;43.238;23.110;2023-05-03T11:22:04;96849.25;;;24.32;37.95
39363;BME280;25088;43.238;23.110;2023-05-03T11:24:29;96862.19;;;24.87;36.32
39363;BME280;25088;43.238;23.110;2023-05-03T11:26:55;96857.50;;;25.54;36.02
39363;BME280;25088;43.238;23.110;2023-05-03T11:29:23;96852.47;;;25.81;35.30
39363;BME280;25088;43.238;23.110;2023-05-03T11:31:50;96858.06;;;25.81;34.63
39363;BME280;25088;43.238;23.110;2023-05-03T11:34:15;96856.97;;;25.73;34.85
39363;BME280;25088;43.238;23.110;2023-05-03T11:36:41;96834.75;;;26.87;33.75
39363;BME280;25088;43.238;23.110;2023-05-03T11:39:06;96844.03;;;27.71;33.53
39363;BME280;25088;43.238;23.110;2023-05-03T11:41:33;96842.53;;;28.05;32.48
39363;BME280;25088;43.238;23.110;2023-05-03T11:43:58;96846.97;;;27.35;34.17
39363;BME280;25088;43.238;23.110;2023-05-03T11:46:27;96853.81;;;26.44;34.76
39363;BME280;25088;43.238;23.110;2023-05-03T11:48:53;96859.63;;;26.15;35.48
39363;BME280;25088;43.238;23.110;2023-05-03T11:51:23;96857.50;;;25.99;35.39
39363;BME280;25088;43.238;23.110;2023-05-03T11:53:49;96867.00;;;25.41;36.02
39363;BME280;25088;43.238;23.110;2023-05-03T11:56:16;96863.91;;;24.50;37.23
39363;BME280;25088;43.238;23.110;2023-05-03T11:58:52;96863.63;;;23.58;39.66
39363;BME280;25088;43.238;23.110;2023-05-03T12:01:19;96869.34;;;22.66;40.25
39363;BME280;25088;43.238;23.110;2023-05-03T12:03:52;96860.53;;;22.64;41.04
39363;BME280;25088;43.238;23.110;2023-05-03T12:06:18;96863.72;;;22.31;41.72
39363;BME280;25088;43.238;23.110;2023-05-03T12:08:43;96855.03;;;22.15;41.76
39363;BME280;25088;43.238;23.110;2023-05-03T12:11:09;96856.72;;;22.34;42.21
39363;BME280;25088;43.238;23.110;2023-05-03T12:13:37;96857.56;;;22.52;41.82
39363;BME280;25088;43.238;23.110;2023-05-03T12:16:03;96847.44;;;22.64;41.93
39363;BME280;25088;43.238;23.110;2023-05-03T12:18:52;96850.88;;;22.79;42.40
39363;BME280;25088;43.238;23.110;2023-05-03T12:21:20;96845.97;;;23.28;40.52
39363;BME280;25088;43.238;23.110;2023-05-03T12:23:46;96848.72;;;23.45;39.78
39363;BME280;25088;43.238;23.110;2023-05-03T12:26:14;96836.34;;;24.19;38.78
39363;BME280;25088;43.238;23.110;2023-05-03T12:28:40;96806.56;;;25.36;37.11
39363;BME280;25088;43.238;23.110;2023-05-03T12:31:05;96821.94;;;25.09;37.19
39363;BME280;25088;43.238;23.110;2023-05-03T12:33:31;96816.06;;;25.23;36.73
39363;BME280;25088;43.238;23.110;2023-05-03T12:35:57;96803.69;;;24.49;38.47
39363;BME280;25088;43.238;23.110;2023-05-03T12:38:23;96777.47;;;24.83;37.93
39363;BME280;25088;43.238;23.110;2023-05-03T12:40:48;96779.38;;;25.24;37.60
39363;BME280;25088;43.238;23.110;2023-05-03T12:43:14;96774.50;;;25.79;36.76
39363;BME280;25088;43.238;23.110;2023-05-03T12:45:40;96784.84;;;25.66;36.92
39363;BME280;25088;43.238;23.110;2023-05-03T12:48:06;96798.06;;;24.28;38.38
39363;BME280;25088;43.238;23.110;2023-05-03T12:50:32;96799.84;;;23.65;39.73
39363;BME280;25088;43.238;23.110;2023-05-03T12:52:57;96783.34;;;23.42;40.00
39363;BME280;25088;43.238;23.110;2023-05-03T12:55:23;96795.47;;;24.23;39.08
39363;BME280;25088;43.238;23.110;2023-05-03T12:57:48;96778.72;;;25.40;38.04
39363;BME280;25088;43.238;23.110;2023-05-03T13:00:14;96776.06;;;26.01;36.38
39363;BME280;25088;43.238;23.110;2023-05-03T13:02:41;96783.00;;;26.56;36.03
39363;BME280;25088;43.238;23.110;2023-05-03T13:05:07;96770.13;;;27.08;35.25
39363;BME280;25088;43.238;23.110;2023-05-03T13:07:33;96766.53;;;27.67;34.31